sensor_id;sensor_type;location;lat;lon;timestamp;pressure;altitude;pressure_sealevel;temperature;humidity
27958;BME280;15295;42.658;23.374;2023-03-03T00:01:04;94623.59;;;9.03;56.28
27958;BME280;15295;42.658;23.374;2023-03-03T00:04:08;94610.75;;;9.00;56.27
27958;BME280;15295;42.658;23.374;2023-03-03T00:12:35;94567.09;;;8.72;56.41
27958;BME280;15295;42.658;23.374;2023-03-03T00:15:41;94564.72;;;8.71;56.53
27958;BME280;15295;42.658;23.374;2023-03-03T00:18:52;94637.25;;;9.17;56.68
27958;BME280;15295;42.658;23.374;2023-03-03T00:21:57;94641.16;;;9.16;56.47
27958;BME280;15295;42.658;23.374;2023-03-03T00:25:31;94571.75;;;8.72;56.51
27958;BME280;15295;42.658;23.374;2023-03-03T00:29:01;94628.28;;;9.13;56.52
27958;BME280;15295;42.658;23.374;2023-03-03T00:31:38;94623.97;;;8.95;56.96
27958;BME280;15295;42.658;23.374;2023-03-03T00:34:47;94631.00;;;9.03;56.95
27958;BME280;15295;42.658;23.374;2023-03-03T00:40:46;94584.22;;;8.83;56.73
27958;BME280;15295;42.658;23.374;2023-03-03T00:43:56;94617.75;;;9.01;56.94
27958;BME280;15295;42.658;23.374;2023-03-03T00:53:21;94597.53;;;9.06;56.83
27958;BME280;15295;42.658;23.374;2023-03-03T00:59:03;94552.31;;;8.77;56.77
27958;BME280;15295;42.658;23.374;2023-03-03T01:02:04;94507.44;;;8.39;56.90
27958;BME280;15295;42.658;23.374;2023-03-03T01:05:25;94547.22;;;8.61;57.20
27958;BME280;15295;42.658;23.374;2023-03-03T01:08:49;94589.31;;;8.88;57.01
27958;BME280;15295;42.658;23.374;2023-03-03T01:11:51;94526.94;;;8.48;57.42
27958;BME280;15295;42.658;23.374;2023-03-03T01:15:18;94577.63;;;8.84;57.24
27958;BME280;15295;42.658;23.374;2023-03-03T01:21:24;94511.66;;;8.22;57.89
27958;BME280;15295;42.658;23.374;2023-03-03T01:23:58;94522.25;;;8.41;57.53
27958;BME280;15295;42.658;23.374;2023-03-03T01:34:35;94573.75;;;8.89;57.46
27958;BME280;15295;42.658;23.374;2023-03-03T01:38:00;94503.97;;;8.49;57.39
27958;BME280;15295;42.658;23.374;2023-03-03T01:41:07;94539.47;;;8.74;57.69
27958;BME280;15295;42.658;23.374;2023-03-03T01:43:42;94510.59;;;8.51;57.60
27958;BME280;15295;42.658;23.374;2023-03-03T01:52:51;94558.94;;;8.83;57.83
27958;BME280;15295;42.658;23.374;2023-03-03T01:55:36;94502.78;;;8.43;57.72
27958;BME280;15295;42.658;23.374;2023-03-03T01:58:48;94495.38;;;8.36;57.75
27958;BME280;15295;42.658;23.374;2023-03-03T02:01:38;94532.81;;;8.71;57.50
27958;BME280;15295;42.658;23.374;2023-03-03T02:04:08;94504.78;;;8.53;57.46
27958;BME280;15295;42.658;23.374;2023-03-03T02:07:24;94560.91;;;8.89;57.45
27958;BME280;15295;42.658;23.374;2023-03-03T02:21:09;94563.25;;;9.05;56.90
27958;BME280;15295;42.658;23.374;2023-03-03T03:26:42;94471.25;;;8.28;57.56
27958;BME280;15295;42.658;23.374;2023-03-03T03:29:46;94511.78;;;8.54;57.70
27958;BME280;15295;42.658;23.374;2023-03-03T03:32:41;94482.06;;;8.14;58.15
27958;BME280;15295;42.658;23.374;2023-03-03T03:38:36;94500.09;;;8.53;57.64
27958;BME280;15295;42.658;23.374;2023-03-03T03:41:56;94526.19;;;8.65;58.20
27958;BME280;15295;42.658;23.374;2023-03-03T03:45:05;94516.47;;;8.61;58.21
27958;BME280;15295;42.658;23.374;2023-03-03T03:54:08;94465.84;;;8.49;58.29
27958;BME280;15295;42.658;23.374;2023-03-03T04:02:19;94487.69;;;8.63;58.63
27958;BME280;15295;42.658;23.374;2023-03-03T04:05:19;94468.19;;;8.50;58.38
27958;BME280;15295;42.658;23.374;2023-03-03T04:08:59;94522.75;;;8.89;58.52
27958;BME280;15295;42.658;23.374;2023-03-03T04:11:32;94489.25;;;8.71;58.55
27958;BME280;15295;42.658;23.374;2023-03-03T04:19:35;94481.44;;;8.66;58.42
27958;BME280;15295;42.658;23.374;2023-03-03T04:22:54;94449.94;;;8.51;58.50
27958;BME280;15295;42.658;23.374;2023-03-03T04:29:04;94515.34;;;8.90;58.60
27958;BME280;15295;42.658;23.374;2023-03-03T04:32:21;94483.00;;;8.60;58.88
27958;BME280;15295;42.658;23.374;2023-03-03T04:35:51;94453.38;;;8.41;58.95
27958;BME280;15295;42.658;23.374;2023-03-03T04:39:03;94516.53;;;8.85;58.95
27958;BME280;15295;42.658;23.374;2023-03-03T04:41:49;94509.47;;;8.77;59.17
27958;BME280;15295;42.658;23.374;2023-03-03T04:44:31;94444.03;;;8.35;59.32
27958;BME280;15295;42.658;23.374;2023-03-03T04:47:44;94439.00;;;8.44;59.08
27958;BME280;15295;42.658;23.374;2023-03-03T04:53:10;94477.56;;;8.74;59.05
27958;BME280;15295;42.658;23.374;2023-03-03T04:56:43;94521.59;;;9.08;58.92
27958;BME280;15295;42.658;23.374;2023-03-03T05:24:05;94513.41;;;9.11;58.18
27958;BME280;15295;42.658;23.374;2023-03-03T05:41:23;94524.31;;;9.32;58.66
27958;BME280;15295;42.658;23.374;2023-03-03T05:44:14;94472.13;;;8.95;58.65
27958;BME280;15295;42.658;23.374;2023-03-03T05:47:06;94473.69;;;8.96;59.28
27958;BME280;15295;42.658;23.374;2023-03-03T05:54:59;94462.00;;;9.10;58.17
27958;BME280;15295;42.658;23.374;2023-03-03T05:57:39;94487.31;;;9.31;57.73
27958;BME280;15295;42.658;23.374;2023-03-03T06:00:32;94520.41;;;9.55;57.74
27958;BME280;15295;42.658;23.374;2023-03-03T06:03:07;94538.69;;;9.65;57.57
27958;BME280;15295;42.658;23.374;2023-03-03T06:05:54;94536.75;;;9.69;57.43
27958;BME280;15295;42.658;23.374;2023-03-03T06:08:25;94465.91;;;9.05;57.54
27958;BME280;15295;42.658;23.374;2023-03-03T06:11:02;94485.00;;;9.12;57.80
27958;BME280;15295;42.658;23.374;2023-03-03T06:13:32;94484.22;;;9.19;57.69
27958;BME280;15295;42.658;23.374;2023-03-03T06:16:27;94542.63;;;9.64;57.49
27958;BME280;15295;42.658;23.374;2023-03-03T06:18:55;94478.34;;;9.20;57.56
27958;BME280;15295;42.658;23.374;2023-03-03T06:21:45;94484.97;;;9.26;57.36
27958;BME280;15295;42.658;23.374;2023-03-03T06:24:58;94552.34;;;9.61;57.46
27958;BME280;15295;42.658;23.374;2023-03-03T06:27:31;94527.03;;;9.43;57.42
27958;BME280;15295;42.658;23.374;2023-03-03T06:30:00;94511.47;;;9.29;57.20
27958;BME280;15295;42.658;23.374;2023-03-03T06:32:28;94549.25;;;9.56;57.34
27958;BME280;15295;42.658;23.374;2023-03-03T06:34:55;94555.84;;;9.65;57.34
27958;BME280;15295;42.658;23.374;2023-03-03T06:37:42;94549.63;;;9.72;57.40
27958;BME280;15295;42.658;23.374;2023-03-03T06:40:31;94486.94;;;9.29;57.41
27958;BME280;15295;42.658;23.374;2023-03-03T06:42:59;94483.81;;;9.31;57.02
27958;BME280;15295;42.658;23.374;2023-03-03T06:45:59;94556.22;;;9.85;57.28
27958;BME280;15295;42.658;23.374;2023-03-03T06:48:38;94501.31;;;9.48;57.12
27958;BME280;15295;42.658;23.374;2023-03-03T06:51:43;94488.47;;;9.41;57.13
27958;BME280;15295;42.658;23.374;2023-03-03T06:54:18;94511.06;;;9.52;56.84
27958;BME280;15295;42.658;23.374;2023-03-03T06:57:15;94523.91;;;9.66;56.57
27958;BME280;15295;42.658;23.374;2023-03-03T06:59:59;94535.59;;;9.77;56.19
27958;BME280;15295;42.658;23.374;2023-03-03T07:03:06;94518.44;;;9.66;56.39
27958;BME280;15295;42.658;23.374;2023-03-03T07:05:37;94527.78;;;9.79;56.32
27958;BME280;15295;42.658;23.374;2023-03-03T07:08:20;94493.91;;;9.55;56.52
27958;BME280;15295;42.658;23.374;2023-03-03T07:10:49;94508.31;;;9.70;56.91
27958;BME280;15295;42.658;23.374;2023-03-03T07:13:27;94562.06;;;9.97;56.84
27958;BME280;15295;42.658;23.374;2023-03-03T07:16:27;94524.28;;;9.68;56.68
27958;BME280;15295;42.658;23.374;2023-03-03T07:18:58;94564.78;;;9.94;56.49
27958;BME280;15295;42.658;23.374;2023-03-03T07:21:34;94572.56;;;9.99;56.49
27958;BME280;15295;42.658;23.374;2023-03-03T07:24:25;94560.88;;;10.02;56.65
27958;BME280;15295;42.658;23.374;2023-03-03T07:37:39;94549.47;;;10.35;55.72
27958;BME280;15295;42.658;23.374;2023-03-03T07:40:47;94547.47;;;10.46;55.60
27958;BME280;15295;42.658;23.374;2023-03-03T07:43:54;94553.31;;;10.55;55.70
27958;BME280;15295;42.658;23.374;2023-03-03T07:49:43;94489.84;;;10.23;55.18
27958;BME280;15295;42.658;23.374;2023-03-03T07:52:32;94546.28;;;10.58;55.03
27958;BME280;15295;42.658;23.374;2023-03-03T07:55:56;94548.66;;;10.49;54.38
27958;BME280;15295;42.658;23.374;2023-03-03T07:58:37;94545.94;;;10.45;54.53
27958;BME280;15295;42.658;23.374;2023-03-03T08:01:43;94543.22;;;10.45;54.63
27958;BME280;15295;42.658;23.374;2023-03-03T08:07:10;94472.41;;;9.82;54.75
27958;BME280;15295;42.658;23.374;2023-03-03T08:10:07;94539.72;;;10.41;55.22
27958;BME280;15295;42.658;23.374;2023-03-03T08:12:48;94474.31;;;9.95;54.88
27958;BME280;15295;42.658;23.374;2023-03-03T08:15:20;94542.03;;;10.46;54.83
27958;BME280;15295;42.658;23.374;2023-03-03T08:17:53;94544.38;;;10.44;54.77
27958;BME280;15295;42.658;23.374;2023-03-03T08:22:54;94538.50;;;10.49;54.62
27958;BME280;15295;42.658;23.374;2023-03-03T08:25:20;94538.88;;;10.48;54.86
27958;BME280;15295;42.658;23.374;2023-03-03T08:27:46;94532.63;;;10.51;54.93
27958;BME280;15295;42.658;23.374;2023-03-03T08:30:12;94531.47;;;10.52;55.29
27958;BME280;15295;42.658;23.374;2023-03-03T08:32:37;94529.91;;;10.51;55.11
27958;BME280;15295;42.658;23.374;2023-03-03T08:35:04;94484.38;;;10.23;55.12
27958;BME280;15295;42.658;23.374;2023-03-03T08:37:30;94507.75;;;10.28;55.20
27958;BME280;15295;42.658;23.374;2023-03-03T08:39:55;94507.00;;;10.20;55.22
27958;BME280;15295;42.658;23.374;2023-03-03T08:42:21;94478.25;;;9.84;55.63
27958;BME280;15295;42.658;23.374;2023-03-03T08:44:46;94515.59;;;10.08;55.91
27958;BME280;15295;42.658;23.374;2023-03-03T08:47:18;94523.41;;;10.24;55.79
27958;BME280;15295;42.658;23.374;2023-03-03T09:05:44;94543.09;;;10.66;55.28
27958;BME280;15295;42.658;23.374;2023-03-03T09:08:10;94525.53;;;10.71;55.36
27958;BME280;15295;42.658;23.374;2023-03-03T09:13:14;94490.38;;;10.69;55.02
27958;BME280;15295;42.658;23.374;2023-03-03T09:15:43;94538.66;;;10.94;54.70
27958;BME280;15295;42.658;23.374;2023-03-03T09:18:34;94537.09;;;10.93;54.34
27958;BME280;15295;42.658;23.374;2023-03-03T09:21:00;94500.56;;;10.62;54.07
27958;BME280;15295;42.658;23.374;2023-03-03T09:23:33;94535.50;;;10.95;53.86
27958;BME280;15295;42.658;23.374;2023-03-03T09:26:24;94530.38;;;11.04;53.78
27958;BME280;15295;42.658;23.374;2023-03-03T09:29:08;94498.88;;;10.82;53.87
27958;BME280;15295;42.658;23.374;2023-03-03T09:31:49;94534.59;;;11.12;53.75
27958;BME280;15295;42.658;23.374;2023-03-03T09:34:40;94533.78;;;11.22;53.40
27958;BME280;15295;42.658;23.374;2023-03-03T09:37:41;94534.44;;;11.37;53.53
27958;BME280;15295;42.658;23.374;2023-03-03T09:43:17;94507.09;;;11.37;53.08
27958;BME280;15295;42.658;23.374;2023-03-03T09:57:21;94471.06;;;11.45;52.34
27958;BME280;15295;42.658;23.374;2023-03-03T10:00:34;94534.72;;;11.94;51.86
27958;BME280;15295;42.658;23.374;2023-03-03T10:05:27;94522.25;;;11.89;52.62
27958;BME280;15295;42.658;23.374;2023-03-03T10:11:35;94527.59;;;12.03;52.31
27958;BME280;15295;42.658;23.374;2023-03-03T10:14:32;94526.41;;;12.04;51.97
27958;BME280;15295;42.658;23.374;2023-03-03T10:22:53;94470.09;;;11.62;52.00
27958;BME280;15295;42.658;23.374;2023-03-03T10:36:48;94502.25;;;11.96;51.51
27958;BME280;15295;42.658;23.374;2023-03-03T10:39:31;94508.81;;;12.05;51.62
27958;BME280;15295;42.658;23.374;2023-03-03T10:45:40;94509.47;;;12.16;51.10
27958;BME280;15295;42.658;23.374;2023-03-03T10:53:31;94512.22;;;12.16;51.32
27958;BME280;15295;42.658;23.374;2023-03-03T10:56:14;94498.94;;;12.11;51.40
27958;BME280;15295;42.658;23.374;2023-03-03T10:58:52;94497.78;;;12.12;51.52
27958;BME280;15295;42.658;23.374;2023-03-03T11:07:07;94488.22;;;12.24;51.51
27958;BME280;15295;42.658;23.374;2023-03-03T11:12:36;94492.03;;;12.33;51.60
27958;BME280;15295;42.658;23.374;2023-03-03T11:18:18;94475.69;;;12.26;51.59
27958;BME280;15295;42.658;23.374;2023-03-03T11:23:54;94467.69;;;12.39;51.17
27958;BME280;15295;42.658;23.374;2023-03-03T11:38:09;94472.22;;;12.22;51.66
27958;BME280;15295;42.658;23.374;2023-03-03T11:55:41;94457.66;;;12.29;52.17
27958;BME280;15295;42.658;23.374;2023-03-03T11:58:33;94457.66;;;12.29;51.85
27958;BME280;15295;42.658;23.374;2023-03-03T12:01:35;94439.06;;;12.13;52.01
27958;BME280;15295;42.658;23.374;2023-03-03T12:04:19;94403.06;;;11.81;52.22
27958;BME280;15295;42.658;23.374;2023-03-03T12:13:12;94414.09;;;12.04;52.47
27958;BME280;15295;42.658;23.374;2023-03-03T12:16:12;94400.84;;;12.03;52.52
27958;BME280;15295;42.658;23.374;2023-03-03T12:33:12;94466.81;;;12.46;53.01
27958;BME280;15295;42.658;23.374;2023-03-03T12:36:17;94454.34;;;12.41;52.83
27958;BME280;15295;42.658;23.374;2023-03-03T12:41:59;94462.34;;;12.59;53.02
27958;BME280;15295;42.658;23.374;2023-03-03T12:45:13;94470.50;;;12.62;52.41
27958;BME280;15295;42.658;23.374;2023-03-03T12:53:00;94467.69;;;12.69;52.26
27958;BME280;15295;42.658;23.374;2023-03-03T12:55:52;94461.63;;;12.55;52.12
27958;BME280;15295;42.658;23.374;2023-03-03T12:58:57;94463.63;;;12.51;52.50
27958;BME280;15295;42.658;23.374;2023-03-03T13:04:33;94453.66;;;12.64;52.62
27958;BME280;15295;42.658;23.374;2023-03-03T13:07:16;94457.88;;;12.68;52.70
27958;BME280;15295;42.658;23.374;2023-03-03T13:15:24;94447.78;;;12.62;53.48
27958;BME280;15295;42.658;23.374;2023-03-03T13:25:44;94443.47;;;12.34;53.85
27958;BME280;15295;42.658;23.374;2023-03-03T13:31:20;94445.34;;;12.40;54.32
27958;BME280;15295;42.658;23.374;2023-03-03T13:33:57;94445.63;;;12.50;53.92
27958;BME280;15295;42.658;23.374;2023-03-03T13:36:27;94448.63;;;12.59;54.21
27958;BME280;15295;42.658;23.374;2023-03-03T13:38:59;94439.31;;;12.53;54.30
27958;BME280;15295;42.658;23.374;2023-03-03T13:44:10;94415.03;;;12.24;53.85
27958;BME280;15295;42.658;23.374;2023-03-03T13:52:13;94446.41;;;12.50;53.50
27958;BME280;15295;42.658;23.374;2023-03-03T13:58:07;94455.28;;;12.31;53.60
27958;BME280;15295;42.658;23.374;2023-03-03T14:01:10;94446.31;;;12.27;53.97
27958;BME280;15295;42.658;23.374;2023-03-03T14:06:53;94449.94;;;12.17;54.04
27958;BME280;15295;42.658;23.374;2023-03-03T14:09:43;94431.28;;;12.08;54.10
27958;BME280;15295;42.658;23.374;2023-03-03T14:15:27;94451.81;;;12.27;54.16
27958;BME280;15295;42.658;23.374;2023-03-03T14:18:19;94444.09;;;12.18;53.94
27958;BME280;15295;42.658;23.374;2023-03-03T14:20:50;94368.41;;;11.64;54.16
27958;BME280;15295;42.658;23.374;2023-03-03T14:23:24;94400.25;;;11.88;53.98
27958;BME280;15295;42.658;23.374;2023-03-03T14:26:04;94425.03;;;12.08;54.00
27958;BME280;15295;42.658;23.374;2023-03-03T14:28:41;94440.94;;;12.20;54.31
27958;BME280;15295;42.658;23.374;2023-03-03T14:33:56;94422.94;;;12.19;53.81
27958;BME280;15295;42.658;23.374;2023-03-03T14:36:43;94401.25;;;12.01;54.33
27958;BME280;15295;42.658;23.374;2023-03-03T14:39:35;94396.22;;;11.96;54.06
27958;BME280;15295;42.658;23.374;2023-03-03T14:44:58;94375.31;;;11.79;54.05
27958;BME280;15295;42.658;23.374;2023-03-03T14:47:26;94404.84;;;11.95;54.01
27958;BME280;15295;42.658;23.374;2023-03-03T14:49:54;94403.66;;;11.96;54.02
27958;BME280;15295;42.658;23.374;2023-03-03T14:52:26;94384.75;;;11.75;54.02
27958;BME280;15295;42.658;23.374;2023-03-03T14:54:57;94433.63;;;12.10;54.28
27958;BME280;15295;42.658;23.374;2023-03-03T15:02:37;94436.03;;;12.04;54.54
27958;BME280;15295;42.658;23.374;2023-03-03T15:05:17;94359.53;;;11.56;54.80
27958;BME280;15295;42.658;23.374;2023-03-03T15:07:45;94366.06;;;11.70;54.77
27958;BME280;15295;42.658;23.374;2023-03-03T15:10:12;94400.91;;;11.96;54.63
27958;BME280;15295;42.658;23.374;2023-03-03T15:12:47;94377.72;;;11.74;54.48
27958;BME280;15295;42.658;23.374;2023-03-03T15:15:20;94410.94;;;12.09;54.34
27958;BME280;15295;42.658;23.374;2023-03-03T15:26:13;94440.00;;;12.30;54.33
27958;BME280;15295;42.658;23.374;2023-03-03T15:37:17;94438.41;;;12.32;54.27
27958;BME280;15295;42.658;23.374;2023-03-03T15:40:18;94408.50;;;12.15;54.05
27958;BME280;15295;42.658;23.374;2023-03-03T15:42:52;94422.41;;;12.27;53.88
27958;BME280;15295;42.658;23.374;2023-03-03T15:46:03;94438.63;;;12.45;53.91
27958;BME280;15295;42.658;23.374;2023-03-03T15:57:01;94384.47;;;11.99;54.10
27958;BME280;15295;42.658;23.374;2023-03-03T15:59:40;94438.69;;;12.42;54.31
27958;BME280;15295;42.658;23.374;2023-03-03T16:08:09;94452.41;;;12.42;54.56
27958;BME280;15295;42.658;23.374;2023-03-03T16:13:40;94460.38;;;12.29;54.45
27958;BME280;15295;42.658;23.374;2023-03-03T16:16:34;94458.94;;;12.21;54.91
27958;BME280;15295;42.658;23.374;2023-03-03T16:27:49;94437.31;;;11.96;55.10
27958;BME280;15295;42.658;23.374;2023-03-03T16:30:24;94465.50;;;12.27;54.87
27958;BME280;15295;42.658;23.374;2023-03-03T16:35:42;94481.84;;;12.34;54.82
27958;BME280;15295;42.658;23.374;2023-03-03T16:41:13;94406.44;;;11.92;54.45
27958;BME280;15295;42.658;23.374;2023-03-03T16:46:31;94479.00;;;12.41;54.27
27958;BME280;15295;42.658;23.374;2023-03-03T16:49:07;94489.19;;;12.40;54.36
27958;BME280;15295;42.658;23.374;2023-03-03T16:51:52;94488.38;;;12.44;53.88
27958;BME280;15295;42.658;23.374;2023-03-03T16:57:40;94508.72;;;12.46;54.16
27958;BME280;15295;42.658;23.374;2023-03-03T17:03:11;94506.34;;;12.48;54.14
27958;BME280;15295;42.658;23.374;2023-03-03T17:06:15;94512.69;;;12.42;54.13
27958;BME280;15295;42.658;23.374;2023-03-03T17:11:56;94499.34;;;12.44;53.78
27958;BME280;15295;42.658;23.374;2023-03-03T17:15:12;94507.94;;;12.46;53.79
27958;BME280;15295;42.658;23.374;2023-03-03T17:23:43;94502.13;;;12.40;53.43
27958;BME280;15295;42.658;23.374;2023-03-03T17:27:59;94522.81;;;12.45;53.70
27958;BME280;15295;42.658;23.374;2023-03-03T17:52:52;94539.88;;;12.25;54.50
27958;BME280;15295;42.658;23.374;2023-03-03T17:55:40;94546.47;;;12.31;54.62
27958;BME280;15295;42.658;23.374;2023-03-03T18:02:09;94550.38;;;12.30;54.75
27958;BME280;15295;42.658;23.374;2023-03-03T18:13:45;94553.13;;;12.30;54.88
27958;BME280;15295;42.658;23.374;2023-03-03T18:17:07;94566.41;;;12.32;54.87
27958;BME280;15295;42.658;23.374;2023-03-03T18:22:12;94558.69;;;12.23;54.82
27958;BME280;15295;42.658;23.374;2023-03-03T18:27:32;94573.50;;;12.29;54.85
27958;BME280;15295;42.658;23.374;2023-03-03T18:32:41;94573.13;;;12.27;54.73
27958;BME280;15295;42.658;23.374;2023-03-03T18:37:53;94549.81;;;12.12;54.99
27958;BME280;15295;42.658;23.374;2023-03-03T18:46:53;94563.41;;;12.19;54.28
27958;BME280;15295;42.658;23.374;2023-03-03T18:49:00;94560.38;;;12.10;54.51
27958;BME280;15295;42.658;23.374;2023-03-03T19:02:40;94584.53;;;12.22;54.52
27958;BME280;15295;42.658;23.374;2023-03-03T19:07:49;94608.34;;;12.29;54.12
27958;BME280;15295;42.658;23.374;2023-03-03T19:12:55;94598.25;;;12.22;54.12
27958;BME280;15295;42.658;23.374;2023-03-03T19:18:46;94614.56;;;12.33;54.27
27958;BME280;15295;42.658;23.374;2023-03-03T19:20:52;94587.00;;;12.10;54.23
27958;BME280;15295;42.658;23.374;2023-03-03T19:24:02;94584.28;;;12.06;54.18
27958;BME280;15295;42.658;23.374;2023-03-03T19:55:22;94609.19;;;12.22;54.15
27958;BME280;15295;42.658;23.374;2023-03-03T20:00:36;94604.09;;;12.24;53.97
27958;BME280;15295;42.658;23.374;2023-03-03T20:08:57;94613.03;;;12.28;53.88
27958;BME280;15295;42.658;23.374;2023-03-03T20:16:57;94585.44;;;12.12;53.81
27958;BME280;15295;42.658;23.374;2023-03-03T20:22:43;94612.16;;;12.38;53.57
27958;BME280;15295;42.658;23.374;2023-03-03T20:25:36;94606.28;;;12.40;53.64
27958;BME280;15295;42.658;23.374;2023-03-03T20:30:51;94604.34;;;12.37;53.93
27958;BME280;15295;42.658;23.374;2023-03-03T20:33:29;94595.34;;;12.36;54.01
27958;BME280;15295;42.658;23.374;2023-03-03T20:36:23;94599.28;;;12.35;53.96
27958;BME280;15295;42.658;23.374;2023-03-03T20:42:26;94560.28;;;12.21;54.11
27958;BME280;15295;42.658;23.374;2023-03-03T20:45:27;94585.53;;;12.39;53.90
27958;BME280;15295;42.658;23.374;2023-03-03T20:51:23;94592.16;;;12.42;53.67
27958;BME280;15295;42.658;23.374;2023-03-03T20:56:46;94585.94;;;12.37;53.72
27958;BME280;15295;42.658;23.374;2023-03-03T21:05:14;94566.22;;;12.16;53.59
27958;BME280;15295;42.658;23.374;2023-03-03T21:07:56;94576.69;;;12.24;53.81
27958;BME280;15295;42.658;23.374;2023-03-03T21:10:30;94563.41;;;12.19;53.66
27958;BME280;15295;42.658;23.374;2023-03-03T21:13:32;94537.09;;;11.95;53.99
27958;BME280;15295;42.658;23.374;2023-03-03T21:16:09;94552.69;;;11.98;53.87
27958;BME280;15295;42.658;23.374;2023-03-03T21:19:10;94581.56;;;12.06;54.17
27958;BME280;15295;42.658;23.374;2023-03-03T21:21:42;94528.72;;;11.65;54.04
27958;BME280;15295;42.658;23.374;2023-03-03T21:24:51;94593.34;;;12.03;54.35
27958;BME280;15295;42.658;23.374;2023-03-03T21:27:49;94594.50;;;12.02;54.35
27958;BME280;15295;42.658;23.374;2023-03-03T21:30:17;94597.69;;;11.97;54.36
27958;BME280;15295;42.658;23.374;2023-03-03T21:32:48;94609.03;;;11.99;54.43
27958;BME280;15295;42.658;23.374;2023-03-03T21:35:16;94607.88;;;11.97;54.63
27958;BME280;15295;42.658;23.374;2023-03-03T21:38:33;94616.03;;;12.00;54.53
27958;BME280;15295;42.658;23.374;2023-03-03T21:40:59;94609.03;;;11.96;54.48
27958;BME280;15295;42.658;23.374;2023-03-03T21:43:37;94618.78;;;12.04;54.67
27958;BME280;15295;42.658;23.374;2023-03-03T21:46:03;94577.94;;;11.76;54.57
27958;BME280;15295;42.658;23.374;2023-03-03T21:48:40;94615.69;;;11.98;54.64
27958;BME280;15295;42.658;23.374;2023-03-03T21:51:08;94609.03;;;11.99;54.52
27958;BME280;15295;42.658;23.374;2023-03-03T21:53:34;94600.50;;;11.90;54.68
27958;BME280;15295;42.658;23.374;2023-03-03T21:56:03;94606.69;;;11.98;54.66
27958;BME280;15295;42.658;23.374;2023-03-03T21:58:51;94606.66;;;12.01;54.64
27958;BME280;15295;42.658;23.374;2023-03-03T22:01:20;94588.75;;;11.90;54.63
27958;BME280;15295;42.658;23.374;2023-03-03T22:03:52;94548.69;;;11.62;54.75
27958;BME280;15295;42.658;23.374;2023-03-03T22:06:44;94595.81;;;11.91;54.68
27958;BME280;15295;42.658;23.374;2023-03-03T22:09:17;94560.00;;;11.68;54.68
27958;BME280;15295;42.658;23.374;2023-03-03T22:11:42;94580.97;;;11.88;54.53
27958;BME280;15295;42.658;23.374;2023-03-03T22:16:45;94585.56;;;11.98;54.24
27958;BME280;15295;42.658;23.374;2023-03-03T22:19:14;94581.75;;;11.89;54.04
27958;BME280;15295;42.658;23.374;2023-03-03T22:21:39;94576.28;;;11.85;53.94
27958;BME280;15295;42.658;23.374;2023-03-03T22:24:08;94591.13;;;11.88;54.00
27958;BME280;15295;42.658;23.374;2023-03-03T22:27:00;94585.69;;;11.81;54.13
27958;BME280;15295;42.658;23.374;2023-03-03T22:29:49;94604.47;;;11.82;54.30
27958;BME280;15295;42.658;23.374;2023-03-03T22:32:18;94613.03;;;11.88;54.07
27958;BME280;15295;42.658;23.374;2023-03-03T22:34:44;94590.09;;;11.71;54.12
27958;BME280;15295;42.658;23.374;2023-03-03T22:37:13;94542.63;;;11.40;54.17
27958;BME280;15295;42.658;23.374;2023-03-03T22:39:39;94601.38;;;11.77;54.14
27958;BME280;15295;42.658;23.374;2023-03-03T22:42:04;94608.03;;;11.79;54.23
27958;BME280;15295;42.658;23.374;2023-03-03T22:44:37;94611.13;;;11.81;54.17
27958;BME280;15295;42.658;23.374;2023-03-03T22:47:05;94593.69;;;11.57;54.23
27958;BME280;15295;42.658;23.374;2023-03-03T22:49:46;94614.34;;;11.65;54.38
27958;BME280;15295;42.658;23.374;2023-03-03T22:52:15;94547.13;;;11.13;54.53
27958;BME280;15295;42.658;23.374;2023-03-03T22:54:44;94569.72;;;11.24;54.59
27958;BME280;15295;42.658;23.374;2023-03-03T22:57:11;94559.56;;;11.21;54.76
27958;BME280;15295;42.658;23.374;2023-03-03T22:59:53;94553.38;;;11.14;54.71
27958;BME280;15295;42.658;23.374;2023-03-03T23:02:19;94601.94;;;11.54;54.68
27958;BME280;15295;42.658;23.374;2023-03-03T23:04:44;94609.78;;;11.52;54.67
27958;BME280;15295;42.658;23.374;2023-03-03T23:07:10;94608.66;;;11.46;54.69
27958;BME280;15295;42.658;23.374;2023-03-03T23:09:40;94630.84;;;11.55;54.90
27958;BME280;15295;42.658;23.374;2023-03-03T23:12:06;94625.47;;;11.41;54.97
27958;BME280;15295;42.658;23.374;2023-03-03T23:14:34;94635.22;;;11.42;55.12
27958;BME280;15295;42.658;23.374;2023-03-03T23:16:59;94636.44;;;11.41;55.17
27958;BME280;15295;42.658;23.374;2023-03-03T23:19:25;94629.75;;;11.42;55.36
27958;BME280;15295;42.658;23.374;2023-03-03T23:21:51;94639.91;;;11.45;55.59
27958;BME280;15295;42.658;23.374;2023-03-03T23:24:28;94641.88;;;11.48;55.66
27958;BME280;15295;42.658;23.374;2023-03-03T23:26:54;94619.66;;;11.32;55.44
27958;BME280;15295;42.658;23.374;2023-03-03T23:32:40;94614.53;;;11.41;55.50
27958;BME280;15295;42.658;23.374;2023-03-03T23:35:07;94593.88;;;11.33;55.52
27958;BME280;15295;42.658;23.374;2023-03-03T23:37:34;94612.59;;;11.41;55.47
27958;BME280;15295;42.658;23.374;2023-03-03T23:39:59;94619.97;;;11.48;55.48
27958;BME280;15295;42.658;23.374;2023-03-03T23:42:30;94575.22;;;11.17;55.44
27958;BME280;15295;42.658;23.374;2023-03-03T23:44:56;94609.44;;;11.43;55.33
27958;BME280;15295;42.658;23.374;2023-03-03T23:47:22;94616.41;;;11.51;55.47
27958;BME280;15295;42.658;23.374;2023-03-03T23:50:25;94634.75;;;11.61;55.48
27958;BME280;15295;42.658;23.374;2023-03-03T23:52:51;94617.94;;;11.55;55.48
27958;BME280;15295;42.658;23.374;2023-03-03T23:55:18;94586.38;;;11.44;55.25
27958;BME280;15295;42.658;23.374;2023-03-03T23:57:44;94591.88;;;11.40;55.37
